Time;durP1;ratioP1;P1;durP2;ratioP2;P2;SDS_P1;SDS_P2;PMS_P1;PMS_P2;Temp;Humidity;BMP_temperature;BMP_pressure;BME280_temperature;BME280_humidity;BME280_pressure;Samples;Min_cycle;Max_cycle;Signal;HPM_P1;HPM_P2
2022/11/15 00:01:39;;;;;;;28.65;17.52;;;;;;;;;;6166750;23;20020;-94
2022/11/15 00:04:05;;;;;;;25.52;17.58;;;;;;;;;;6166893;23;20025;-96
2022/11/15 00:06:31;;;;;;;25.80;19.23;;;;;;;;;;6166931;23;20017;-95
2022/11/15 00:09:01;;;;;;;29.85;18.98;;;;;;;;;;6191375;23;20072;-89
2022/11/15 00:11:27;;;;;;;27.95;18.35;;;;;;;;;;6166519;23;20346;-93
2022/11/15 00:13:57;;;;;;;25.70;17.55;;;;;;;;;;6166144;23;20133;-92
2022/11/15 00:16:24;;;;;;;25.00;17.20;;;;;;;;;;6166727;23;20017;-92
2022/11/15 00:18:50;;;;;;;26.27;16.27;;;;;;;;;;6192249;23;20028;-91
2022/11/15 00:21:16;;;;;;;22.75;15.85;;;;;;;;;;6191207;23;20021;-94
2022/11/15 00:23:42;;;;;;;27.50;17.52;;;;;;;;;;6191567;23;20020;-95
2022/11/15 00:26:12;;;;;;;27.05;16.98;;;;;;;;;;6166389;23;20023;-89
2022/11/15 00:28:38;;;;;;;25.00;17.40;;;;;;;;;;6191541;23;20048;-90
2022/11/15 00:31:05;;;;;;;26.42;16.98;;;;;;;;;;6166902;23;20024;-94
2022/11/15 00:33:31;;;;;;;25.98;15.80;;;;;;;;;;6166265;23;20028;-93
2022/11/15 00:36:05;;;;;;;28.55;16.23;;;;;;;;;;6191323;23;20028;-96
2022/11/15 00:38:34;;;;;;;24.52;16.27;;;;;;;;;;6184433;23;20335;-83
2022/11/15 00:41:01;;;;;;;26.73;17.20;;;;;;;;;;6183679;23;20023;-83
2022/11/15 00:43:31;;;;;;;26.80;17.02;;;;;;;;;;6185810;23;20055;-82
2022/11/15 00:45:57;;;;;;;22.67;16.60;;;;;;;;;;6211493;23;20017;-85
2022/11/15 00:48:24;;;;;;;24.63;17.25;;;;;;;;;;6187726;23;20025;-93
2022/11/15 00:50:50;;;;;;;28.38;16.95;;;;;;;;;;6211692;23;20021;-86
2022/11/15 00:53:17;;;;;;;30.23;17.38;;;;;;;;;;6185926;23;20020;-95
2022/11/15 00:55:43;;;;;;;27.17;16.17;;;;;;;;;;6186741;23;20031;-85
2022/11/15 00:58:09;;;;;;;25.50;16.67;;;;;;;;;;6185525;23;20044;-87
2022/11/15 01:00:35;;;;;;;24.45;15.57;;;;;;;;;;6210323;23;20357;-82
2022/11/15 01:03:03;;;;;;;21.05;15.98;;;;;;;;;;6210277;23;20024;-82
2022/11/15 01:05:29;;;;;;;26.77;16.83;;;;;;;;;;6213257;23;20008;-82
2022/11/15 01:07:56;;;;;;;25.52;17.33;;;;;;;;;;6212669;23;20095;-88
2022/11/15 01:10:22;;;;;;;28.80;18.13;;;;;;;;;;6188572;23;20004;-85
2022/11/15 01:12:49;;;;;;;25.52;17.92;;;;;;;;;;6188623;23;20035;-89
2022/11/15 01:15:15;;;;;;;27.27;16.52;;;;;;;;;;6187589;23;20020;-96
2022/11/15 01:17:41;;;;;;;24.08;15.70;;;;;;;;;;6213537;23;20024;-93
2022/11/15 01:20:07;;;;;;;24.85;16.48;;;;;;;;;;6214667;23;20071;-85
2022/11/15 01:22:33;;;;;;;25.20;17.20;;;;;;;;;;6215738;23;20016;-87
2022/11/15 01:24:59;;;;;;;27.08;16.42;;;;;;;;;;6203496;23;20036;-83
2022/11/15 01:27:25;;;;;;;24.63;17.10;;;;;;;;;;6186205;23;20021;-83
2022/11/15 01:29:51;;;;;;;26.50;16.70;;;;;;;;;;6155062;23;20032;-85
2022/11/15 01:32:17;;;;;;;25.30;18.25;;;;;;;;;;6155317;23;20045;-83
2022/11/15 01:34:44;;;;;;;23.27;16.23;;;;;;;;;;6178016;23;20107;-83
2022/11/15 01:37:10;;;;;;;27.45;17.13;;;;;;;;;;6164894;23;20017;-89
2022/11/15 01:39:36;;;;;;;25.73;18.25;;;;;;;;;;6177309;23;20025;-91
2022/11/15 01:42:02;;;;;;;26.65;17.45;;;;;;;;;;6208583;23;20043;-96
2022/11/15 01:44:35;;;;;;;26.23;17.33;;;;;;;;;;6210046;23;20025;-93
2022/11/15 01:47:03;;;;;;;30.70;18.30;;;;;;;;;;6210823;23;20020;-91
2022/11/15 01:49:32;;;;;;;25.10;18.08;;;7.70;99.90;;;;;;6207398;23;20056;-89
2022/11/15 01:51:58;;;;;;;30.17;19.13;;;;;;;;;;6182441;23;20013;-94
2022/11/15 01:54:25;;;;;;;27.92;17.60;;;;;;;;;;6206460;23;20017;-96
2022/11/15 01:56:53;;;;;;;27.73;17.48;;;;;;;;;;6182636;23;20384;-88
2022/11/15 01:59:20;;;;;;;25.95;17.60;;;;;;;;;;6182116;23;20024;-90
2022/11/15 02:01:46;;;;;;;28.83;18.38;;;;;;;;;;6187234;23;20021;-96
2022/11/15 02:04:14;;;;;;;24.27;18.20;;;;;;;;;;6186009;23;20032;-96
2022/11/15 02:06:41;;;;;;;28.52;17.30;;;;;;;;;;6210723;23;20024;-89
2022/11/15 02:09:07;;;;;;;29.15;18.92;;;;;;;;;;6184046;23;20017;-86
2022/11/15 02:11:34;;;;;;;29.02;17.63;;;;;;;;;;6184438;23;20041;-83
2022/11/15 02:14:02;;;;;;;29.43;17.57;;;;;;;;;;6139627;23;1109832;-86
2022/11/15 02:16:36;;;;;;;27.63;16.90;;;;;;;;;;6189530;23;20048;-83
2022/11/15 02:19:11;;;;;;;34.22;18.60;;;;;;;;;;6211976;23;20020;-90
2022/11/15 02:21:41;;;;;;;29.67;18.38;;;;;;;;;;6185934;23;20021;-94
2022/11/15 02:24:17;;;;;;;25.70;16.92;;;;;;;;;;6177559;23;20025;-85
2022/11/15 02:27:04;;;;;;;27.23;15.90;;;;;;;;;;6180774;23;20021;-92
2022/11/15 02:29:38;;;;;;;26.30;17.35;;;;;;;;;;6182670;23;20025;-85
2022/11/15 02:32:08;;;;;;;29.73;17.90;;;;;;;;;;6184741;23;20035;-84
2022/11/15 02:34:39;;;;;;;22.85;14.23;;;;;;;;;;6158972;23;20032;-89
2022/11/15 02:37:16;;;;;;;25.13;15.55;;;;;;;;;;6185352;23;20027;-82
2022/11/15 02:39:42;;;;;;;23.00;14.13;;;;;;;;;;6213207;23;20370;-84
2022/11/15 02:45:04;;;;;;;26.52;16.17;;;;;;;;;;6212135;23;20024;-82
2022/11/15 02:47:31;;;;;;;36.25;16.63;;;;;;;;;;6188118;23;20052;-83
2022/11/15 02:50:08;;;;;;;26.75;16.38;;;;;;;;;;6186342;23;20020;-83
2022/11/15 02:52:34;;;;;;;26.40;16.05;;;;;;;;;;6187775;23;20028;-82
2022/11/15 02:55:01;;;;;;;28.75;16.17;;;;;;;;;;6212723;23;20055;-82
2022/11/15 02:57:36;;;;;;;27.48;17.10;;;;;;;;;;6187164;23;20032;-82
2022/11/15 03:00:13;;;;;;;29.65;17.67;;;;;;;;;;6212460;23;20004;-82
2022/11/15 03:02:45;;;;;;;28.95;16.33;;;;;;;;;;6186880;23;20025;-82
2022/11/15 03:05:18;;;;;;;31.70;17.98;;;;;;;;;;6189007;23;20025;-82
2022/11/15 03:07:59;;;;;;;35.72;18.38;;;7.40;99.90;;;;;;6190249;23;20025;-82
2022/11/15 03:10:28;;;;;;;33.05;18.10;;;;;;;;;;6204772;23;20028;-82
2022/11/15 03:13:00;;;;;;;27.48;16.30;;;;;;;;;;6205044;23;20021;-82
2022/11/15 03:15:32;;;;;;;31.58;18.08;;;;;;;;;;6204280;23;20531;-82
2022/11/15 03:18:04;;;;;;;29.33;17.27;;;7.50;99.90;;;;;;6179839;23;20389;-82
2022/11/15 03:20:30;;;;;;;33.92;18.95;;;;;;;;;;6205286;23;20103;-82
2022/11/15 03:23:01;;;;;;;30.20;16.98;;;;;;;;;;6177485;23;20021;-81
2022/11/15 03:25:28;;;;;;;30.83;17.73;;;;;;;;;;6148332;23;20109;-83
2022/11/15 03:27:57;;;;;;;30.40;17.42;;;;;;;;;;6171046;23;20021;-81
2022/11/15 03:30:24;;;;;;;29.02;17.20;;;;;;;;;;6171991;23;20016;-82
2022/11/15 03:33:02;;;;;;;28.83;17.52;;;7.40;99.90;;;;;;6171030;23;20069;-83
2022/11/15 03:35:32;;;;;;;30.33;17.98;;;;;;;;;;6169956;23;20099;-82
2022/11/15 03:38:11;;;;;;;29.92;18.63;;;;;;;;;;6155794;23;20383;-83
2022/11/15 03:40:39;;;;;;;32.63;18.10;;;;;;;;;;6181412;23;20487;-83
2022/11/15 03:43:11;;;;;;;28.67;17.75;;;;;;;;;;6187640;23;20342;-83
2022/11/15 03:45:41;;;;;;;33.15;17.63;;;;;;;;;;6192067;23;20032;-83
2022/11/15 03:48:10;;;;;;;30.17;19.00;;;;;;;;;;6190969;23;20023;-83
2022/11/15 03:50:37;;;;;;;29.00;17.80;;;;;;;;;;6193153;23;20039;-83
2022/11/15 03:53:03;;;;;;;32.22;17.58;;;;;;;;;;6190742;23;20047;-84
2022/11/15 03:55:32;;;;;;;31.90;17.65;;;;;;;;;;6193452;23;20033;-83
2022/11/15 03:57:59;;;;;;;34.83;19.10;;;;;;;;;;6219126;23;20052;-83
2022/11/15 04:00:25;;;;;;;35.05;18.52;;;;;;;;;;6192952;23;20004;-85
2022/11/15 04:02:51;;;;;;;35.60;20.40;;;;;;;;;;6193547;23;20024;-86
2022/11/15 04:05:17;;;;;;;34.85;17.45;;;;;;;;;;6193734;23;20036;-85
2022/11/15 04:07:43;;;;;;;33.42;18.88;;;;;;;;;;6214346;23;20005;-82
2022/11/15 04:10:10;;;;;;;38.33;17.02;;;;;;;;;;6191161;23;20092;-83
2022/11/15 04:12:37;;;;;;;37.25;18.85;;;;;;;;;;6214929;23;20028;-83
2022/11/15 04:15:06;;;;;;;35.63;18.60;;;;;;;;;;6190000;23;20008;-84
2022/11/15 04:17:33;;;;;;;33.78;19.60;;;;;;;;;;6215357;23;20047;-86
2022/11/15 04:25:32;;;;;;;32.85;17.80;;;;;;;;;;6214921;23;20020;-86
2022/11/15 04:28:01;;;;;;;47.75;20.25;;;;;;;;;;6189568;23;20059;-86
2022/11/15 04:30:27;;;;;;;44.42;19.30;;;;;;;;;;6190141;23;20016;-85
2022/11/15 04:32:54;;;;;;;42.88;18.92;;;;;;;;;;6188671;23;20013;-83
2022/11/15 04:35:20;;;;;;;45.00;20.23;;;;;;;;;;6185762;23;20052;-92
2022/11/15 04:37:46;;;;;;;37.47;20.90;;;;;;;;;;6212353;23;20005;-83
2022/11/15 04:40:12;;;;;;;42.72;20.50;;;;;;;;;;6187648;23;20024;-83
2022/11/15 04:42:41;;;;;;;41.55;20.60;;;;;;;;;;6213063;23;20021;-82
2022/11/15 04:45:07;;;;;;;37.35;19.30;;;;;;;;;;6188596;23;20035;-82
2022/11/15 04:47:33;;;;;;;40.25;21.58;;;;;;;;;;6188728;23;20071;-82
2022/11/15 04:49:59;;;;;;;42.65;20.70;;;;;;;;;;6214660;23;20013;-85
2022/11/15 04:52:25;;;;;;;38.17;19.40;;;;;;;;;;6193016;23;20005;-83
2022/11/15 04:54:51;;;;;;;39.15;17.33;;;;;;;;;;6190163;23;20028;-82
2022/11/15 04:57:17;;;;;;;36.88;19.90;;;;;;;;;;6215355;23;20015;-82
2022/11/15 04:59:43;;;;;;;36.50;18.90;;;;;;;;;;6217295;23;20055;-82
2022/11/15 05:02:09;;;;;;;39.88;18.75;;;;;;;;;;6219488;23;20044;-82
2022/11/15 05:04:39;;;;;;;40.25;20.48;;;;;;;;;;6216752;23;20043;-87
2022/11/15 05:07:09;;;;;;;38.65;21.50;;;;;;;;;;6192014;23;20020;-82
2022/11/15 05:09:35;;;;;;;35.13;18.27;;;;;;;;;;6190914;23;20028;-84
2022/11/15 05:12:01;;;;;;;44.40;20.55;;;;;;;;;;6214852;23;20024;-83
2022/11/15 05:14:27;;;;;;;42.88;19.88;;;;;;;;;;6189734;23;20020;-82
2022/11/15 05:16:56;;;;;;;47.92;20.58;;;;;;;;;;6214052;23;20028;-84
2022/11/15 05:19:22;;;;;;;49.63;21.13;;;;;;;;;;6188610;23;20052;-82
2022/11/15 05:21:48;;;;;;;45.25;20.73;;;;;;;;;;6201750;23;20032;-86
2022/11/15 05:24:14;;;;;;;47.60;20.95;;;;;;;;;;6172262;23;20066;-84
2022/11/15 05:26:41;;;;;;;44.88;21.35;;;;;;;;;;6160850;23;20024;-86
2022/11/15 05:29:09;;;;;;;43.72;22.50;;;;;;;;;;6159836;23;20017;-87
2022/11/15 05:31:39;;;;;;;43.42;20.23;;;;;;;;;;6159794;23;20526;-86
2022/11/15 05:34:05;;;;;;;48.20;22.65;;;;;;;;;;6134916;23;20021;-88
2022/11/15 05:36:45;;;;;;;45.67;22.00;;;;;;;;;;6159736;23;20025;-87
2022/11/15 05:39:11;;;;;;;54.78;23.77;;;;;;;;;;6135099;23;20017;-87
2022/11/15 05:41:39;;;;;;;45.17;22.38;;;;;;;;;;6159772;23;20032;-85
2022/11/15 05:44:07;;;;;;;58.53;24.45;;;;;;;;;;6135305;23;20465;-85
2022/11/15 05:46:33;;;;;;;48.97;24.42;;;;;;;;;;6135014;23;20081;-83
2022/11/15 05:49:00;;;;;;;39.20;22.63;;;;;;;;;;6134911;23;20399;-83
2022/11/15 05:51:29;;;;;;;74.68;24.58;;;;;;;;;;6159550;23;20021;-82
2022/11/15 05:53:57;;;;;;;53.63;25.63;;;;;;;;;;6134852;23;20067;-82
2022/11/15 05:56:23;;;;;;;58.95;24.98;;;;;;;;;;6134875;23;20095;-85
2022/11/15 05:58:49;;;;;;;55.17;23.58;;;;;;;;;;6159628;23;20408;-86
2022/11/15 06:01:15;;;;;;;61.78;26.63;;;;;;;;;;6159486;23;20025;-83
2022/11/15 06:03:43;;;;;;;51.47;24.15;;;;;;;;;;6160278;23;20044;-82
2022/11/15 06:06:09;;;;;;;54.10;24.13;;;;;;;;;;6160530;23;20036;-82
2022/11/15 06:08:38;;;;;;;64.97;26.65;;;;;;;;;;6136074;23;20025;-83
2022/11/15 06:11:05;;;;;;;59.80;26.30;;;;;;;;;;6160975;23;20029;-85
2022/11/15 06:13:31;;;;;;;65.05;26.15;;;;;;;;;;6160367;23;20017;-81
2022/11/15 06:15:58;;;;;;;66.20;28.33;;;;;;;;;;6160506;23;20095;-86
2022/11/15 06:18:24;;;;;;;72.28;27.02;;;;;;;;;;6136013;23;20060;-82
2022/11/15 06:20:58;;;;;;;64.40;27.38;;;;;;;;;;6162057;23;20021;-89
2022/11/15 06:23:27;;;;;;;;;;;8.60;99.90;;;;;;6137359;23;20350;-90
2022/11/15 06:25:54;;;;;;;53.72;25.52;;;;;;;;;;6138058;23;19916;-89
2022/11/15 06:28:20;;;;;;;64.70;28.33;;;;;;;;;;6163266;23;20021;-90
2022/11/15 06:30:48;;;;;;;78.32;30.92;;;;;;;;;;6163266;23;20064;-90
2022/11/15 06:33:14;;;;;;;76.57;30.77;;;;;;;;;;6163168;23;20394;-90
2022/11/15 06:35:40;;;;;;;67.07;27.77;;;;;;;;;;6138727;23;20021;-90
2022/11/15 06:38:09;;;;;;;67.65;29.25;;;;;;;;;;6139813;23;20386;-90
2022/11/15 06:40:36;;;;;;;71.85;30.40;;;;;;;;;;6140083;23;20112;-88
2022/11/15 06:43:03;;;;;;;77.28;33.58;;;;;;;;;;6161355;23;20029;-92
2022/11/15 06:45:30;;;;;;;76.50;29.17;;;;;;;;;;6162281;23;20053;-82
2022/11/15 06:47:56;;;;;;;73.03;32.40;;;;;;;;;;6163035;23;20021;-83
2022/11/15 06:50:22;;;;;;;73.40;31.38;;;;;;;;;;6160250;23;20048;-92
2022/11/15 06:52:48;;;;;;;76.13;30.77;;;;;;;;;;6135753;23;20092;-89
2022/11/15 06:55:14;;;;;;;62.53;29.30;;;;;;;;;;6136542;23;20064;-91
2022/11/15 06:57:47;;;;;;;84.88;33.15;;;;;;;;;;6164635;23;20049;-89
2022/11/15 07:00:13;;;;;;;81.85;30.75;;;;;;;;;;6167338;23;20025;-88
2022/11/15 07:02:39;;;;;;;68.38;30.60;;;;;;;;;;6142601;23;20028;-90
2022/11/15 07:05:05;;;;;;;78.20;33.10;;;;;;;;;;6164666;23;20447;-85
2022/11/15 07:07:31;;;;;;;68.07;30.75;;;;;;;;;;6160506;23;20053;-89
2022/11/15 07:09:57;;;;;;;69.22;31.35;;;;;;;;;;6160224;23;20043;-90
2022/11/15 07:12:23;;;;;;;69.32;29.88;;;;;;;;;;6160173;23;20458;-83
2022/11/15 07:14:49;;;;;;;71.63;30.52;;;;;;;;;;6136314;23;20027;-81
2022/11/15 07:17:15;;;;;;;73.38;32.10;;;;;;;;;;6136298;23;20056;-86
2022/11/15 07:19:42;;;;;;;70.82;30.05;;;;;;;;;;6161291;23;20029;-89
2022/11/15 07:22:08;;;;;;;65.00;29.10;;;;;;;;;;6161049;23;20071;-89
2022/11/15 07:24:34;;;;;;;73.75;29.50;;;;;;;;;;6161140;23;20021;-88
2022/11/15 07:27:00;;;;;;;55.53;27.48;;;;;;;;;;6161192;23;20025;-89
2022/11/15 07:29:26;;;;;;;65.82;30.00;;;;;;;;;;6161115;23;20021;-90
2022/11/15 07:31:52;;;;;;;62.10;27.13;;;;;;;;;;6136730;23;20025;-87
2022/11/15 07:34:18;;;;;;;59.75;27.77;;;;;;;;;;6136568;23;20032;-88
2022/11/15 07:36:44;;;;;;;68.95;29.92;;;;;;;;;;6136635;23;20021;-88
2022/11/15 07:39:11;;;;;;;65.65;28.42;;;;;;;;;;6136686;23;20025;-88
2022/11/15 07:41:38;;;;;;;67.85;28.00;;;;;;;;;;6161325;23;20047;-90
2022/11/15 07:44:04;;;;;;;59.63;28.45;;;;;;;;;;6136610;23;20099;-82
2022/11/15 07:46:31;;;;;;;67.43;28.95;;;9.70;99.90;;;;;;6136356;23;20084;-86
2022/11/15 07:48:57;;;;;;;59.20;28.95;;;;;;;;;;6161058;23;20013;-88
2022/11/15 07:51:23;;;;;;;48.92;26.40;;;;;;;;;;6161340;23;20029;-88
2022/11/15 07:53:49;;;;;;;52.80;26.20;;;;;;;;;;6136779;23;20021;-89
2022/11/15 07:56:15;;;;;;;61.45;28.73;;;;;;;;;;6136547;23;20366;-84
2022/11/15 07:58:41;;;;;;;50.22;27.20;;;;;;;;;;6136510;23;20017;-86
2022/11/15 08:01:09;;;;;;;48.00;26.55;;;;;;;;;;6160657;23;20021;-86
2022/11/15 08:03:35;;;;;;;54.45;27.38;;;;;;;;;;6136387;23;20060;-83
2022/11/15 08:06:01;;;;;;;59.45;26.50;;;;;;;;;;6135948;23;20071;-83
2022/11/15 08:08:27;;;;;;;59.80;25.98;;;;;;;;;;6186131;23;20048;-82
2022/11/15 08:10:54;;;;;;;52.55;25.90;;;;;;;;;;6135968;23;20537;-82
2022/11/15 08:13:20;;;;;;;53.20;25.38;;;;;;;;;;6160482;23;20028;-85
2022/11/15 08:15:47;;;;;;;45.17;25.55;;;;;;;;;;6135698;23;20076;-85
2022/11/15 08:18:15;;;;;;;42.47;22.67;;;10.10;99.90;;;;;;6160188;23;20021;-85
2022/11/15 08:20:41;;;;;;;46.50;24.48;;;;;;;;;;6135862;23;20017;-82
2022/11/15 08:23:08;;;;;;;56.78;27.40;;;;;;;;;;6160207;23;20071;-85
2022/11/15 08:25:35;;;;;;;45.50;23.10;;;10.30;99.90;;;;;;6161641;23;20033;-86
2022/11/15 08:28:02;;;;;;;44.00;25.17;;;;;;;;;;6160351;23;20021;-83
2022/11/15 08:30:29;;;;;;;44.67;23.23;;;;;;;;;;6160294;23;20091;-85
2022/11/15 08:32:57;;;;;;;45.95;22.33;;;10.30;99.90;;;;;;6160280;23;20024;-86
2022/11/15 08:35:24;;;;;;;43.08;22.92;;;;;;;;;;6160183;23;20021;-87
2022/11/15 08:37:50;;;;;;;46.38;24.27;;;;;;;;;;6135968;23;20024;-86
2022/11/15 08:40:18;;;;;;;43.95;24.33;;;;;;;;;;6160204;23;20025;-87
2022/11/15 08:42:46;;;;;;;44.22;24.33;;;10.40;99.90;;;;;;6135824;23;20092;-85
2022/11/15 08:45:12;;;;;;;47.78;24.50;;;;;;;;;;6136127;23;20454;-91
2022/11/15 08:47:38;;;;;;;40.45;22.92;;;;;;;;;;6136071;23;20024;-91
2022/11/15 08:50:04;;;;;;;44.20;22.90;;;;;;;;;;6160608;23;20470;-92
2022/11/15 08:52:30;;;;;;;45.70;24.02;;;;;;;;;;6136080;23;20351;-91
2022/11/15 08:54:58;;;;;;;35.90;22.48;;;;;;;;;;6135865;23;20025;-89
2022/11/15 08:57:24;;;;;;;40.22;24.05;;;;;;;;;;6136047;23;20021;-83
2022/11/15 08:59:50;;;;;;;40.63;22.85;;;;;;;;;;6160657;23;20100;-82
2022/11/15 09:02:16;;;;;;;34.10;21.30;;;;;;;;;;6160521;23;20021;-91
2022/11/15 09:04:42;;;;;;;34.53;21.65;;;;;;;;;;6135957;23;20698;-91
2022/11/15 09:07:10;;;;;;;38.58;23.35;;;10.90;99.90;;;;;;6160257;23;20017;-92
2022/11/15 09:09:36;;;;;;;36.88;21.83;;;;;;;;;;6160437;23;20021;-90
2022/11/15 09:12:03;;;;;;;45.03;22.38;;;;;;;;;;6185273;23;20025;-90
2022/11/15 09:14:29;;;;;;;38.22;21.55;;;;;;;;;;6160350;23;20021;-89
2022/11/15 09:16:55;;;;;;;36.15;21.10;;;;;;;;;;6135323;23;20017;-87
2022/11/15 09:19:21;;;;;;;36.88;20.17;;;;;;;;;;6160131;23;20021;-91
2022/11/15 09:21:47;;;;;;;32.10;18.92;;;;;;;;;;6185179;23;20463;-93
2022/11/15 09:24:13;;;;;;;31.10;19.63;;;;;;;;;;6159565;23;20017;-87
2022/11/15 09:26:40;;;;;;;30.83;18.67;;;;;;;;;;6134969;23;20358;-86
2022/11/15 09:29:06;;;;;;;31.17;19.38;;;;;;;;;;6159703;23;20100;-85
2022/11/15 09:31:32;;;;;;;31.50;18.48;;;;;;;;;;6135209;23;20021;-86
2022/11/15 09:33:58;;;;;;;33.40;19.60;;;;;;;;;;6159442;23;20028;-83
2022/11/15 09:36:24;;;;;;;39.05;19.17;;;;;;;;;;6135314;23;20052;-82
2022/11/15 09:38:50;;;;;;;30.50;18.30;;;;;;;;;;6159621;23;20024;-82
2022/11/15 09:41:52;;;;;;;31.42;18.95;;;11.00;99.90;;;;;;6135085;23;20021;-85
2022/11/15 09:44:32;;;;;;;32.10;20.10;;;;;;;;;;6018757;23;20100;-88
2022/11/15 09:47:03;;;;;;;30.15;19.08;;;;;;;;;;6042176;23;20033;-86
2022/11/15 09:49:30;;;;;;;28.25;18.48;;;11.30;99.90;;;;;;6018709;23;20019;-87
2022/11/15 09:51:56;;;;;;;34.78;19.40;;;;;;;;;;6042306;23;20027;-85
2022/11/15 09:54:37;;;;;;;33.90;19.17;;;11.30;99.90;;;;;;6042138;23;20102;-87
2022/11/15 09:57:11;;;;;;;34.53;19.00;;;;;;;;;;6042211;23;20401;-81
2022/11/15 09:59:49;;;;;;;30.85;19.05;;;;;;;;;;6042119;23;20052;-85
2022/11/15 10:02:24;;;;;;;28.83;19.30;;;;;;;;;;6018743;23;20022;-82
2022/11/15 10:04:51;;;;;;;32.47;17.88;;;11.20;99.90;;;;;;6042081;23;20139;-83
2022/11/15 10:07:41;;;;;;;32.00;18.48;;;11.20;99.90;;;;;;6042113;23;20027;-85
2022/11/15 10:10:10;;;;;;;29.98;17.85;;;;;;;;;;6018367;23;20029;-88
2022/11/15 10:12:36;;;;;;;26.23;16.33;;;;;;;;;;6042121;23;20027;-85
2022/11/15 10:15:07;;;;;;;25.23;16.85;;;11.50;99.90;;;;;;6018667;23;20030;-87
2022/11/15 10:17:36;;;;;;;25.02;16.10;;;;;;;;;;6018409;23;20090;-86
2022/11/15 10:20:12;;;;;;;25.88;16.60;;;;;;;;;;6039136;23;20021;-90
2022/11/15 10:22:51;;;;;;;24.95;16.00;;;11.30;99.90;;;;;;6131459;23;20100;-83
2022/11/15 10:25:23;;;;;;;37.03;16.95;;;;;;;;;;6105863;23;20018;-87
2022/11/15 10:28:10;;;;;;;26.73;16.30;;;11.50;99.90;;;;;;6130314;23;20033;-88
2022/11/15 10:30:40;;;;;;;33.28;16.65;;;11.60;99.90;;;;;;6130567;23;20395;-90
2022/11/15 10:33:22;;;;;;;27.98;16.65;;;;;;;;;;6105546;23;20417;-89
2022/11/15 10:35:48;;;;;;;25.23;14.88;;;11.50;99.90;;;;;;6105692;23;20057;-91
2022/11/15 10:38:14;;;;;;;26.75;15.15;;;;;;;;;;6130145;23;20022;-89
2022/11/15 10:40:41;;;;;;;20.63;13.73;;;;;;;;;;6105847;23;20026;-91
2022/11/15 10:43:10;;;;;;;28.23;15.23;;;;;;;;;;6130214;23;20029;-90
2022/11/15 10:45:36;;;;;;;25.80;14.90;;;;;;;;;;6105646;23;20022;-90
2022/11/15 10:48:14;;;;;;;23.08;15.45;;;;;;;;;;6107102;23;20025;-90
2022/11/15 10:50:45;;;;;;;23.98;15.75;;;11.70;99.90;;;;;;6131865;23;20030;-86
2022/11/15 10:53:17;;;;;;;25.00;14.75;;;;;;;;;;6156759;23;20383;-91
2022/11/15 10:55:48;;;;;;;19.40;14.07;;;11.90;99.90;;;;;;6131905;23;20022;-91
2022/11/15 10:58:31;;;;;;;25.60;13.57;;;;;;;;;;6131700;23;20351;-86
2022/11/15 11:01:19;;;;;;;23.83;14.80;;;11.60;99.90;;;;;;6131579;23;20029;-87
2022/11/15 11:04:07;;;;;;;24.05;14.52;;;11.90;99.90;;;;;;6107164;23;20026;-87
2022/11/15 11:06:48;;;;;;;19.52;13.43;;;11.90;99.90;;;;;;6131623;23;20044;-84
2022/11/15 11:09:37;;;;;;;24.75;13.35;;;12.00;99.90;;;;;;6131456;23;20023;-86
2022/11/15 11:12:05;;;;;;;19.50;13.35;;;12.10;99.90;;;;;;6107242;23;20029;-81
2022/11/15 11:14:36;;;;;;;20.70;13.05;;;12.00;99.90;;;;;;6106861;23;20363;-86
2022/11/15 11:17:09;;;;;;;19.55;13.05;;;;;;;;;;6143190;23;20067;-87
2022/11/15 11:19:40;;;;;;;16.27;11.27;;;;;;;;;;6162382;23;20021;-88
2022/11/15 11:22:25;;;;;;;21.75;12.18;;;;;;;;;;6160796;23;20323;-88
2022/11/15 11:24:59;;;;;;;17.85;12.00;;;;;;;;;;6136262;23;20101;-86
2022/11/15 11:27:52;;;;;;;19.85;12.52;;;;;;;;;;6136193;23;20021;-87
2022/11/15 11:30:24;;;;;;;17.50;11.45;;;;;;;;;;6160898;23;20096;-87
2022/11/15 11:33:02;;;;;;;18.77;12.00;;;;;;;;;;6136311;23;20032;-88
2022/11/15 11:35:28;;;;;;;18.63;11.48;;;;;;;;;;6136243;23;20354;-82
2022/11/15 11:37:54;;;;;;;13.23;9.80;;;;;;;;;;6136196;23;20017;-85
2022/11/15 11:40:29;;;;;;;19.10;10.52;;;;;;;;;;6160986;23;20032;-88
2022/11/15 11:43:31;;;;;;;15.50;9.98;;;12.00;99.90;;;;;;6136388;23;20100;-89
2022/11/15 11:45:57;;;;;;;16.88;11.00;;;;;;;;;;6136335;23;20075;-92
2022/11/15 11:48:43;;;;;;;18.00;9.15;;;12.10;99.90;;;;;;6161105;23;20107;-88
2022/11/15 11:51:25;;;;;;;10.45;8.27;;;12.10;99.90;;;;;;6136503;23;20013;-90
2022/11/15 11:53:55;;;;;;;9.38;6.63;;;;;;;;;;6136460;23;20027;-87
2022/11/15 11:56:29;;;;;;;13.57;8.77;;;;;;;;;;6136421;23;20021;-84
2022/11/15 11:58:56;;;;;;;;;;;12.10;99.90;;;;;;6161280;23;20100;-86
2022/11/15 12:01:26;;;;;;;10.55;6.93;;;12.20;99.90;;;;;;6136267;23;19939;-86
2022/11/15 12:03:56;;;;;;;8.73;6.18;;;;;;;;;;6136572;23;20017;-89
2022/11/15 12:06:23;;;;;;;14.60;6.50;;;;;;;;;;6136604;23;20029;-85
2022/11/15 12:09:11;;;;;;;8.98;5.68;;;12.10;99.90;;;;;;6160785;23;20023;-89
2022/11/15 12:11:49;;;;;;;8.07;6.22;;;;;;;;;;6136133;23;20021;-88
2022/11/15 12:14:21;;;;;;;10.55;5.70;;;12.20;99.90;;;;;;6136289;23;20036;-86
2022/11/15 12:16:47;;;;;;;17.90;5.97;;;;;;;;;;6135943;23;20017;-88
2022/11/15 12:19:13;;;;;;;8.00;4.38;;;;;;;;;;6135870;23;20033;-84
2022/11/15 12:22:04;;;;;;;8.30;5.00;;;12.30;99.90;;;;;;6160465;23;20020;-86
2022/11/15 12:24:49;;;;;;;4.90;4.18;;;12.40;99.90;;;;;;6160461;23;20332;-86
2022/11/15 12:27:15;;;;;;;4.53;3.88;;;;;;;;;;6160706;23;20029;-87
2022/11/15 12:29:48;;;;;;;9.52;4.80;;;12.50;99.90;;;;;;6160332;23;20023;-87
2022/11/15 12:32:30;;;;;;;4.95;3.22;;;12.60;99.90;;;;;;6160358;23;20021;-87
2022/11/15 12:34:57;;;;;;;10.55;3.30;;;;;;;;;;6160278;23;20021;-83
2022/11/15 12:37:45;;;;;;;6.22;3.30;;;12.20;99.90;;;;;;6135575;23;20032;-86
2022/11/15 12:40:29;;;;;;;5.93;3.30;;;12.50;99.90;;;;;;6135657;23;20021;-82
2022/11/15 12:42:58;;;;;;;8.27;3.10;;;;;;;;;;6135829;23;20121;-82
2022/11/15 12:45:38;;;;;;;3.28;2.97;;;12.40;99.90;;;;;;6135481;23;20021;-81
2022/11/15 12:48:16;;;;;;;8.88;3.83;;;12.40;99.90;;;;;;6135536;23;20049;-81
2022/11/15 12:50:53;;;;;;;5.32;3.05;;;;;;;;;;6135606;23;20028;-82
2022/11/15 12:53:25;;;;;;;7.70;4.55;;;;;;;;;;6135528;23;20069;-83
2022/11/15 12:56:03;;;;;;;12.15;3.70;;;;;;;;;;6160741;23;20052;-82
2022/11/15 12:58:40;;;;;;;8.68;3.42;;;12.30;99.90;;;;;;6135447;23;20053;-86
2022/11/15 13:01:30;;;;;;;4.97;2.97;;;12.40;99.90;;;;;;6135422;23;20024;-82
2022/11/15 13:04:14;;;;;;;9.00;3.78;;;;;;;;;;6135451;23;20025;-84
2022/11/15 13:06:44;;;;;;;6.75;3.10;;;12.50;99.90;;;;;;6135398;23;20021;-87
2022/11/15 13:09:33;;;;;;;4.13;3.08;;;12.50;99.90;;;;;;6134823;23;20023;-86
2022/11/15 13:12:07;;;;;;;6.05;2.92;;;12.40;99.90;;;;;;6042746;23;20026;-82
2022/11/15 13:14:39;;;;;;;4.10;3.15;;;;;;;;;;6018810;23;20033;-81
2022/11/15 13:17:20;;;;;;;6.95;3.50;;;;;;;;;;6009352;23;20039;-86
2022/11/15 13:19:53;;;;;;;11.68;3.85;;;12.70;99.90;;;;;;6014118;23;20054;-85
2022/11/15 13:25:14;;;;;;;4.72;3.33;;;12.30;99.90;;;;;;6014039;23;20410;-84
2022/11/15 13:27:40;;;;;;;5.65;4.40;;;12.60;99.90;;;;;;5991728;23;20399;-86
2022/11/15 13:30:20;;;;;;;5.47;3.40;;;12.40;99.90;;;;;;5991017;23;20019;-87
2022/11/15 13:32:46;;;;;;;8.52;3.47;;;;;;;;;;6014096;23;20055;-83
2022/11/15 13:35:24;;;;;;;5.85;2.83;;;12.70;99.90;;;;;;6013878;23;20062;-83
2022/11/15 13:37:51;;;;;;;5.68;3.03;;;12.50;99.90;;;;;;6013927;23;20422;-84
2022/11/15 13:40:30;;;;;;;3.92;3.03;;;12.30;99.90;;;;;;5990673;23;20023;-82
2022/11/15 13:42:57;;;;;;;3.92;2.80;;;12.60;99.90;;;;;;6014055;23;20023;-87
2022/11/15 13:45:23;;;;;;;7.20;3.28;;;;;;;;;;6013805;23;20116;-83
2022/11/15 13:47:55;;;;;;;8.07;3.03;;;12.70;99.90;;;;;;6016224;23;20023;-85
2022/11/15 13:50:27;;;;;;;5.18;2.70;;;12.50;99.90;;;;;;6105853;23;20026;-87
2022/11/15 13:52:55;;;;;;;7.57;2.95;;;12.50;99.90;;;;;;6105581;23;20025;-84
2022/11/15 13:55:23;;;;;;;6.38;2.70;;;12.60;99.90;;;;;;6105819;23;20036;-89
2022/11/15 13:57:55;;;;;;;7.05;3.03;;;12.60;99.90;;;;;;6129951;23;20026;-84
2022/11/15 14:00:43;;;;;;;4.53;3.13;;;12.80;99.90;;;;;;6105469;23;20021;-86
2022/11/15 14:03:32;;;;;;;4.40;2.92;;;12.50;99.90;;;;;;6130084;23;20022;-84
2022/11/15 14:06:12;;;;;;;4.57;2.95;;;12.50;99.90;;;;;;6129981;23;20481;-85
2022/11/15 14:08:57;;;;;;;9.43;2.88;;;12.50;99.90;;;;;;6129885;23;20052;-86
2022/11/15 14:11:23;;;;;;;3.60;3.00;;;;;;;;;;6105414;23;20077;-89
2022/11/15 14:14:07;;;;;;;3.80;2.58;;;12.50;99.90;;;;;;6129763;23;20068;-83
2022/11/15 14:16:33;;;;;;;;;;;;;;;;;;6108654;23;20047;-86
2022/11/15 14:18:59;;;;;;;5.53;2.90;;;;;;;;;;6159469;23;19948;-86
2022/11/15 14:21:25;;;;;;;4.97;2.72;;;;;;;;;;6160307;23;20025;-87
2022/11/15 14:23:51;;;;;;;6.63;3.45;;;;;;;;;;6159763;23;20021;-85